Time;durP1;ratioP1;P1;durP2;ratioP2;P2;SDS_P1;SDS_P2;PMS_P1;PMS_P2;Temp;Humidity;BMP_temperature;BMP_pressure;BME280_temperature;BME280_humidity;BME280_pressure;Samples;Min_cycle;Max_cycle;Signal;HPM_P1;HPM_P2
2022/04/23 00:00:50;;;;;;;1.08;0.20;;;;;;;23.13;61.35;102108.13;5033560;28;20021;-69
2022/04/23 00:03:16;;;;;;;0.40;0.05;;;;;;;23.11;60.60;102111.91;5033008;28;20046;-68
2022/04/23 00:05:41;;;;;;;1.27;0.60;;;;;;;23.18;60.59;102108.44;5033611;28;20384;-69
2022/04/23 00:08:08;;;;;;;0.40;0.10;;;;;;;23.21;60.60;102103.50;5033583;28;20071;-69
2022/04/23 00:10:33;;;;;;;1.00;0.20;;;;;;;23.23;60.72;102095.94;5033336;28;20384;-68
2022/04/23 00:12:59;;;;;;;0.73;0.10;;;;;;;23.26;60.45;102103.81;5033524;28;20468;-68
2022/04/23 00:15:25;;;;;;;1.38;0.20;;;;;;;23.31;59.31;102103.28;5033466;28;20104;-68
2022/04/23 00:17:51;;;;;;;0.30;0.10;;;;;;;23.32;59.78;102102.25;5033703;28;20385;-69
2022/04/23 00:20:18;;;;;;;0.90;0.52;;;;;;;23.33;59.77;102098.47;5033350;28;20112;-69
2022/04/23 00:22:44;;;;;;;0.40;0.20;;;;;;;23.34;59.35;102097.44;5032937;28;20032;-68
2022/04/23 00:25:10;;;;;;;0.73;0.40;;;;;;;23.38;59.96;102098.84;5031903;28;20045;-68
2022/04/23 00:27:35;;;;;;;0.95;0.17;;;;;;;23.35;58.84;102099.19;5032984;28;20108;-68
2022/04/23 00:30:02;;;;;;;0.80;0.28;;;;;;;23.41;59.44;102095.72;5032772;28;20026;-68
2022/04/23 00:32:27;;;;;;;0.77;0.10;;;;;;;23.45;58.87;102107.22;5032063;28;20519;-68
2022/04/23 00:34:52;;;;;;;1.92;0.40;;;;;;;23.41;59.83;102099.34;5039171;28;20017;-68
2022/04/23 00:37:18;;;;;;;2.78;0.20;;;;;;;23.41;58.59;102096.59;5032424;28;20026;-68
2022/04/23 00:39:43;;;;;;;1.02;0.20;;;;;;;23.41;59.28;102090.25;5031703;28;20040;-68
2022/04/23 00:42:09;;;;;;;1.20;0.32;;;;;;;23.42;58.07;102089.22;5048164;28;20037;-68
2022/04/23 00:44:38;;;;;;;0.60;0.20;;;;;;;23.42;57.55;102083.72;5031044;28;20018;-68
2022/04/23 00:47:04;;;;;;;0.73;0.30;;;;;;;23.44;58.46;102089.88;5031854;28;20063;-69
2022/04/23 00:49:29;;;;;;;1.10;0.30;;;;;;;23.42;58.40;102073.59;5047541;28;20428;-68
2022/04/23 00:51:55;;;;;;;0.65;0.30;;;;;;;23.46;58.58;102078.72;5032773;28;20033;-68
2022/04/23 00:54:22;;;;;;;0.90;0.40;;;;;;;23.46;58.46;102071.34;5031288;28;20049;-68
2022/04/23 00:56:47;;;;;;;1.67;0.30;;;;;;;23.49;58.10;102078.38;5032600;28;20068;-68
2022/04/23 00:59:13;;;;;;;1.58;0.40;;;;;;;23.46;57.87;102076.84;5033014;28;20104;-69
2022/04/23 01:01:40;;;;;;;1.73;0.30;;;;;;;23.44;58.18;102080.81;5032620;28;20075;-68
2022/04/23 01:04:06;;;;;;;1.58;0.20;;;;;;;23.47;57.85;102084.03;5031526;28;20063;-68
2022/04/23 01:06:34;;;;;;;0.73;0.30;;;;;;;23.49;58.11;102071.00;5032418;28;20055;-68
2022/04/23 01:09:05;;;;;;;1.42;0.45;;;;;;;23.49;58.13;102079.22;5032812;28;20461;-68
2022/04/23 01:11:32;;;;;;;1.88;0.28;;;;;;;23.55;58.23;102077.69;5032825;28;20025;-68
2022/04/23 01:13:57;;;;;;;0.73;0.10;;;;;;;23.53;58.37;102077.03;5047830;28;20029;-68
2022/04/23 01:16:23;;;;;;;0.75;0.32;;;;;;;23.50;56.91;102075.44;5032268;28;20033;-68
2022/04/23 01:18:48;;;;;;;1.25;0.50;;;;;;;23.51;57.64;102068.94;5032347;28;20025;-68
2022/04/23 01:21:13;;;;;;;1.77;0.30;;;;;;;23.47;58.40;102066.72;5031141;28;20580;-69
2022/04/23 01:23:42;;;;;;;1.13;0.20;;;;;;;23.52;57.54;102062.44;5037276;28;20028;-68
2022/04/23 01:26:08;;;;;;;0.80;0.30;;;;;;;23.53;58.36;102057.81;5040416;28;20135;-68
2022/04/23 01:28:35;;;;;;;0.70;0.20;;;;;;;23.57;57.40;102059.19;5032143;28;20037;-68
2022/04/23 01:31:00;;;;;;;1.98;0.20;;;;;;;23.52;58.29;102048.72;5032380;28;20108;-68
2022/04/23 01:33:26;;;;;;;2.75;0.30;;;;;;;23.56;57.88;102052.81;5032420;28;20449;-68
2022/04/23 01:35:51;;;;;;;2.20;0.35;;;;;;;23.54;57.96;102048.53;5032368;28;20033;-68
2022/04/23 01:38:16;;;;;;;0.50;0.20;;;;;;;23.59;57.67;102035.16;5032495;28;20035;-69
2022/04/23 01:40:42;;;;;;;1.80;0.10;;;;;;;23.57;57.56;102035.34;5032027;28;20025;-68
2022/04/23 01:43:08;;;;;;;0.47;0.32;;;;;;;23.57;56.93;102043.56;5031013;28;20018;-68
2022/04/23 01:45:34;;;;;;;0.93;0.25;;;;;;;23.56;57.46;102036.34;5032079;28;20025;-68
2022/04/23 01:47:59;;;;;;;0.40;0.13;;;;;;;23.58;57.58;102039.78;5032362;28;20156;-68
2022/04/23 01:50:25;;;;;;;2.08;0.15;;;;;;;23.58;58.05;102038.94;5031971;28;20495;-68
2022/04/23 01:52:50;;;;;;;2.67;0.28;;;;;;;23.58;58.31;102039.78;5030766;28;20043;-68
2022/04/23 01:55:15;;;;;;;1.02;0.47;;;;;;;23.60;57.70;102032.22;5032131;28;20073;-68
2022/04/23 01:57:41;;;;;;;1.95;0.30;;;;;;;23.58;57.53;102026.06;5030739;28;20076;-68
2022/04/23 02:00:08;;;;;;;0.63;0.10;;;;;;;23.61;57.67;102033.94;5030725;28;20029;-69
2022/04/23 02:02:36;;;;;;;0.70;0.20;;;;;;;23.58;57.70;102023.31;5031849;28;20021;-68
2022/04/23 02:05:03;;;;;;;1.20;0.20;;;;;;;23.59;57.13;102030.53;5032366;28;20048;-68
2022/04/23 02:07:28;;;;;;;2.33;0.55;;;;;;;23.59;57.49;102025.03;5030984;28;20033;-68
2022/04/23 02:09:53;;;;;;;1.20;0.20;;;;;;;23.57;57.82;102029.84;5032258;28;20029;-68
2022/04/23 02:12:18;;;;;;;0.50;0.30;;;;;;;23.56;57.21;102025.34;5034272;28;20516;-68
2022/04/23 02:14:44;;;;;;;1.00;0.28;;;;;;;23.56;57.81;102019.88;5035706;28;20037;-68
2022/04/23 02:17:10;;;;;;;0.40;0.25;;;;;;;23.65;56.96;102017.97;5035702;28;20482;-69
2022/04/23 02:19:35;;;;;;;1.17;0.20;;;;;;;23.63;56.06;102020.88;5035818;28;20045;-68
2022/04/23 02:22:00;;;;;;;1.25;0.32;;;;;;;23.64;56.70;102017.09;5039702;28;20025;-68
2022/04/23 02:24:26;;;;;;;0.75;0.25;;;;;;;23.62;57.19;102013.69;5051018;28;20025;-68
2022/04/23 02:26:51;;;;;;;1.25;0.28;;;;;;;23.65;57.86;102024.31;5035915;28;20133;-68
2022/04/23 02:29:17;;;;;;;2.88;0.50;;;;;;;23.63;57.19;102018.16;5035381;28;20054;-68
2022/04/23 02:31:42;;;;;;;1.10;0.10;;;;;;;23.63;57.67;102009.91;5035373;28;20068;-68
2022/04/23 02:34:07;;;;;;;1.00;0.20;;;;;;;23.66;57.13;102015.03;5035507;28;20100;-68
2022/04/23 02:36:32;;;;;;;0.50;0.30;;;;;;;23.62;56.64;102008.19;5035405;28;20524;-68
2022/04/23 02:38:59;;;;;;;0.47;0.13;;;;;;;23.64;57.38;102011.63;5035565;28;20021;-69
2022/04/23 02:41:24;;;;;;;0.30;0.30;;;;;;;23.66;57.59;102003.19;5035311;28;20476;-68
2022/04/23 02:43:50;;;;;;;1.88;0.43;;;;;;;23.60;57.61;101999.28;5035504;28;20040;-68
2022/04/23 02:46:15;;;;;;;0.80;0.20;;;;;;;23.64;58.14;101999.78;5035219;28;20362;-68
2022/04/23 02:48:42;;;;;;;0.45;0.20;;;;;;;23.65;57.15;101996.84;5035162;28;20032;-68
2022/04/23 02:51:07;;;;;;;0.77;0.10;;;;;;;23.65;58.03;101991.38;5035422;28;20032;-68
2022/04/23 02:53:34;;;;;;;0.60;0.20;;;;;;;23.61;57.49;101990.00;5034812;28;20413;-68
2022/04/23 02:56:02;;;;;;;0.70;0.30;;;;;;;23.63;57.08;101990.69;5050667;28;20042;-68
2022/04/23 02:58:28;;;;;;;1.55;0.45;;;;;;;23.63;57.30;101987.94;5034725;28;20025;-68
2022/04/23 03:00:53;;;;;;;0.60;0.10;;;;;;;23.66;57.57;101987.59;5035035;28;20040;-68
2022/04/23 03:03:19;;;;;;;1.27;0.30;;;;;;;23.63;58.03;101987.94;5034714;28;20361;-68
2022/04/23 03:05:44;;;;;;;1.35;0.30;;;;;;;23.67;56.97;101982.94;5033567;28;20026;-68
2022/04/23 03:08:13;;;;;;;0.55;0.30;;;;;;;23.66;57.09;101986.72;5034746;28;20038;-66
2022/04/23 03:10:39;;;;;;;0.88;0.38;;;;;;;23.64;57.10;101986.91;5034848;28;20033;-68
2022/04/23 03:13:06;;;;;;;1.05;0.20;;;;;;;23.65;56.89;101982.28;5034842;28;20472;-68
2022/04/23 03:15:31;;;;;;;1.40;0.25;;;;;;;23.67;57.27;101983.81;5033563;28;20025;-68
2022/04/23 03:18:13;;;;;;;1.13;0.38;;;;;;;23.68;57.93;101980.06;5034707;28;20056;-68
2022/04/23 03:20:40;;;;;;;1.00;0.20;;;;;;;23.68;57.53;101981.91;5034428;28;20025;-68
2022/04/23 03:23:06;;;;;;;0.40;0.10;;;;;;;23.69;57.57;101976.25;5033380;28;20091;-68
2022/04/23 03:25:32;;;;;;;0.88;0.20;;;;;;;23.63;57.62;101976.09;5034614;28;20065;-68
2022/04/23 03:27:57;;;;;;;1.33;0.30;;;;;;;23.67;57.76;101981.06;5034644;28;20056;-67
2022/04/23 03:30:22;;;;;;;1.52;0.20;;;;;;;23.66;57.50;101975.75;5034349;28;20025;-68
2022/04/23 03:32:48;;;;;;;0.50;0.10;;;;;;;23.66;56.66;101978.50;5034211;28;20021;-67
2022/04/23 03:35:14;;;;;;;1.08;0.57;;;;;;;23.66;57.01;101976.59;5033279;28;20036;-67
2022/04/23 03:37:40;;;;;;;1.55;0.28;;;;;;;23.67;57.18;101970.06;5040964;28;20010;-68
2022/04/23 03:40:06;;;;;;;1.48;0.28;;;;;;;23.69;57.41;101976.25;5037487;28;20044;-67
2022/04/23 03:42:32;;;;;;;1.08;0.30;;;;;;;23.75;56.87;101973.81;5032703;28;20063;-68
2022/04/23 03:44:58;;;;;;;1.52;0.40;;;;;;;23.71;56.99;101970.59;5034315;28;20036;-68
2022/04/23 03:47:23;;;;;;;1.45;0.30;;;;;;;23.68;56.41;101974.56;5032840;28;20124;-67
2022/04/23 03:49:48;;;;;;;0.40;0.10;;;;;;;23.69;57.27;101973.53;5034123;28;20112;-68
2022/04/23 03:52:14;;;;;;;0.80;0.10;;;;;;;23.69;57.42;101969.91;5033991;28;20271;-68
2022/04/23 03:54:39;;;;;;;0.95;0.15;;;;;;;23.67;58.29;101967.31;5033624;28;20269;-67
2022/04/23 03:57:05;;;;;;;1.50;0.30;;;;;;;23.67;57.07;101961.84;5034121;28;20052;-66
2022/04/23 03:59:30;;;;;;;0.50;0.30;;;;;;;23.74;56.76;101963.88;5033653;28;20526;-67
2022/04/23 04:01:56;;;;;;;0.65;0.20;;;;;;;23.76;56.98;101967.31;5033852;28;20032;-67
2022/04/23 04:04:22;;;;;;;1.02;0.35;;;;;;;23.91;57.17;101963.59;5033557;28;20099;-68
2022/04/23 04:06:47;;;;;;;0.63;0.20;;;;;;;23.97;55.36;101956.50;5033666;28;20034;-67
2022/04/23 04:09:13;;;;;;;0.73;0.20;;;;;;;24.03;56.47;101954.94;5033995;28;20040;-68
2022/04/23 04:14:22;;;;;;;2.53;0.40;;;;;;;24.11;56.51;101958.47;5033816;28;20032;-68
2022/04/23 04:16:47;;;;;;;0.60;0.15;;;;;;;24.18;56.50;101959.44;5033420;28;20033;-67
2022/04/23 04:19:14;;;;;;;1.50;0.20;;;;;;;24.16;54.98;101967.03;5033515;28;20052;-68
2022/04/23 04:21:43;;;;;;;0.88;0.30;;;;;;;24.22;55.94;101966.31;5033468;28;20033;-68
2022/04/23 04:24:12;;;;;;;0.20;0.17;;;;;;;24.24;55.39;101964.22;5033565;28;20067;-68
2022/04/23 04:26:41;;;;;;;0.60;0.20;;;;;;;24.25;55.57;101963.19;5033297;28;20063;-68
2022/04/23 04:29:07;;;;;;;0.90;0.20;;;;;;;24.25;56.19;101960.44;5033330;28;20028;-68
2022/04/23 04:31:47;;;;;;;0.20;0.10;;;;;;;24.27;56.20;101957.50;5033102;28;20635;-69
2022/04/23 04:34:13;;;;;;;0.28;0.25;;;;;;;24.29;56.27;101961.81;5033168;28;20037;-68
2022/04/23 04:36:39;;;;;;;0.70;0.30;;;;;;;24.33;55.47;101966.94;5033152;28;20088;-68
2022/04/23 04:39:04;;;;;;;0.40;0.22;;;;;;;24.37;55.57;101958.16;5033329;28;20033;-68
2022/04/23 04:41:31;;;;;;;0.85;0.15;;;;;;;24.39;56.90;101960.72;5032978;28;20037;-68
2022/04/23 04:43:56;;;;;;;1.13;0.32;;;;;;;24.38;56.20;101964.50;5038695;28;20034;-67
2022/04/23 04:46:22;;;;;;;0.32;0.13;;;;;;;24.40;56.80;101956.91;5050897;28;20060;-68
2022/04/23 04:48:47;;;;;;;1.52;0.30;;;;;;;24.43;56.71;101962.03;5033248;28;20056;-68
2022/04/23 04:51:12;;;;;;;1.58;0.20;;;;;;;24.42;55.43;101963.09;5032931;28;20060;-68
2022/04/23 04:53:37;;;;;;;1.25;0.52;;;;;;;24.41;56.42;101958.63;5032957;28;20402;-68
2022/04/23 04:56:03;;;;;;;0.85;0.20;;;;;;;24.45;56.41;101947.06;5032822;28;20053;-68
2022/04/23 04:58:28;;;;;;;1.17;0.20;;;;;;;24.46;56.04;101957.03;5032467;28;20036;-68
2022/04/23 05:00:54;;;;;;;2.03;0.45;;;;;;;24.45;56.88;101954.47;5032939;28;20033;-68
2022/04/23 05:03:19;;;;;;;0.30;0.20;;;;;;;24.48;56.10;101949.44;5032517;28;20026;-68
2022/04/23 05:05:45;;;;;;;3.00;0.38;;;;;;;24.47;55.52;101944.13;5033015;28;20039;-68
2022/04/23 05:08:11;;;;;;;0.80;0.20;;;;;;;24.52;57.74;101949.91;5032723;28;20476;-68
2022/04/23 05:10:36;;;;;;;0.60;0.10;;;;;;;24.54;56.32;101939.63;5032403;28;20025;-68
2022/04/23 05:13:01;;;;;;;1.85;0.32;;;;;;;24.51;56.86;101942.72;5032792;28;20468;-68
2022/04/23 05:15:26;;;;;;;1.58;0.55;;;;;;;24.54;56.43;101939.63;5032333;28;20034;-68
2022/04/23 05:17:52;;;;;;;0.77;0.20;;;;;;;24.53;57.07;101930.53;5032425;28;20025;-68
2022/04/23 05:20:17;;;;;;;2.28;0.40;;;;;;;24.56;57.29;101934.78;5032620;28;20025;-69
2022/04/23 05:22:42;;;;;;;0.60;0.30;;;;;;;24.55;57.66;101944.06;5032593;28;20033;-68
2022/04/23 05:25:08;;;;;;;1.02;0.20;;;;;;;24.58;57.18;101939.06;5032385;28;20029;-68
2022/04/23 05:27:34;;;;;;;1.55;0.47;;;;;;;24.60;58.55;101941.63;5032450;28;20097;-68
2022/04/23 05:29:59;;;;;;;1.88;0.63;;;;;;;24.62;57.96;101945.03;5031087;28;20121;-68
2022/04/23 05:32:24;;;;;;;1.00;0.20;;;;;;;24.60;57.80;101941.63;5032262;28;20453;-69
2022/04/23 05:34:50;;;;;;;0.82;0.20;;;;;;;24.61;58.03;101940.56;5032925;28;20120;-68
2022/04/23 05:37:15;;;;;;;1.00;0.22;;;;;;;24.63;58.55;101938.47;5032603;28;20408;-68
2022/04/23 05:39:40;;;;;;;1.38;0.32;;;;;;;24.62;58.29;101938.66;5032500;28;20472;-68
2022/04/23 05:42:06;;;;;;;1.48;0.50;;;;;;;24.66;58.43;101940.84;5032363;28;20018;-68
2022/04/23 05:44:31;;;;;;;1.17;0.32;;;;;;;24.64;58.21;101937.44;5032024;28;20029;-68
2022/04/23 05:46:56;;;;;;;0.30;0.20;;;;;;;24.62;58.42;101939.53;5034554;28;20052;-68
2022/04/23 05:49:22;;;;;;;1.17;0.30;;;;;;;24.65;59.02;101933.66;5036159;28;20531;-68
2022/04/23 05:51:47;;;;;;;0.45;0.20;;;;;;;24.71;58.60;101943.91;5036246;28;20030;-69
2022/04/23 05:54:12;;;;;;;1.85;0.45;;;;;;;24.68;58.70;101938.75;5036159;28;20037;-69
2022/04/23 05:56:37;;;;;;;0.77;0.30;;;;;;;24.68;59.37;101944.25;5042807;28;20104;-68
2022/04/23 05:59:03;;;;;;;1.17;0.38;;;;;;;24.68;58.96;101948.91;5044615;28;20067;-69
2022/04/23 06:01:28;;;;;;;0.63;0.20;;;;;;;24.67;58.54;101948.06;5036182;28;20017;-69
2022/04/23 06:03:53;;;;;;;1.50;0.40;;;;;;;24.70;59.29;101953.22;5036018;28;20102;-68
2022/04/23 06:06:19;;;;;;;1.15;0.30;;;;;;;24.74;58.99;101949.03;5036059;28;20033;-68
2022/04/23 06:08:45;;;;;;;0.40;0.10;;;;;;;24.74;58.81;101949.03;5035972;28;20445;-68
2022/04/23 06:11:10;;;;;;;0.82;0.20;;;;;;;24.73;59.54;101958.34;5035837;28;20056;-69
2022/04/23 06:13:35;;;;;;;1.20;0.25;;;;;;;24.71;59.00;101949.41;5035838;28;20021;-68
2022/04/23 06:16:00;;;;;;;0.25;0.15;;;;;;;24.70;59.09;101955.09;5051312;28;20109;-68
2022/04/23 06:18:26;;;;;;;1.15;0.32;;;;;;;24.74;59.30;101954.53;5035589;28;20048;-68
2022/04/23 06:20:51;;;;;;;1.67;0.50;;;;;;;24.74;58.74;101960.03;5035660;28;20025;-68
2022/04/23 06:23:17;;;;;;;3.33;0.30;;;;;;;24.78;58.99;101955.88;5035545;28;20384;-68
2022/04/23 06:25:42;;;;;;;1.80;0.30;;;;;;;24.75;59.05;101945.25;5035646;28;20026;-68
2022/04/23 06:28:10;;;;;;;2.28;0.38;;;;;;;24.73;59.96;101947.34;5035172;28;20017;-67
2022/04/23 06:30:38;;;;;;;1.55;0.20;;;;;;;24.73;59.02;101941.84;5035448;28;20025;-68
2022/04/23 06:33:04;;;;;;;0.77;0.20;;;;;;;24.79;59.63;101941.06;5034213;28;20059;-69
2022/04/23 06:35:30;;;;;;;1.20;0.30;;;;;;;24.80;59.00;101950.16;5035505;28;20029;-68
2022/04/23 06:37:56;;;;;;;0.65;0.20;;;;;;;24.81;59.56;101944.47;5035533;28;20419;-68
2022/04/23 06:40:21;;;;;;;1.55;0.20;;;;;;;24.75;59.46;101945.25;5035205;28;20025;-68
2022/04/23 06:42:47;;;;;;;0.35;0.20;;;;;;;24.79;59.28;101935.56;5035166;28;20084;-68
2022/04/23 06:45:12;;;;;;;0.20;0.10;;;;;;;24.81;59.41;101936.22;5035576;28;20036;-68
2022/04/23 06:47:38;;;;;;;0.98;0.50;;;;;;;24.82;59.92;101934.34;5035395;28;20029;-68
2022/04/23 06:50:06;;;;;;;1.00;0.17;;;;;;;24.80;59.77;101939.16;5035338;28;20030;-68
2022/04/23 06:52:31;;;;;;;1.10;0.13;;;;;;;24.84;58.88;101935.00;5034635;28;20026;-68
2022/04/23 06:54:56;;;;;;;2.10;0.20;;;;;;;24.84;59.42;101933.09;5035509;28;20029;-69
2022/04/23 06:57:23;;;;;;;0.55;0.10;;;;;;;24.82;59.08;101937.94;5034999;28;20437;-68
2022/04/23 06:59:49;;;;;;;1.52;0.70;;;;;;;24.83;59.47;101931.41;5035200;28;20022;-69
2022/04/23 07:02:15;;;;;;;2.63;0.40;;;;;;;24.86;59.73;101933.78;5039242;28;20017;-68
2022/04/23 07:04:40;;;;;;;1.63;0.40;;;;;;;24.88;58.99;101934.44;5039418;28;20087;-68
2022/04/23 07:07:05;;;;;;;0.15;0.15;;;;;;;24.83;59.63;101945.16;5035113;28;20465;-68
2022/04/23 07:09:31;;;;;;;0.50;0.20;;;;;;;24.88;59.74;101945.44;5034866;28;20029;-68
2022/04/23 07:11:58;;;;;;;0.93;0.32;;;;;;;24.86;59.44;101936.53;5034996;28;20025;-69
2022/04/23 07:14:24;;;;;;;0.47;0.30;;;;;;;24.85;58.99;101942.19;5034619;28;20380;-68
2022/04/23 07:16:49;;;;;;;0.17;0.15;;;;;;;24.84;59.16;101943.25;5034559;28;20026;-68
2022/04/23 07:19:14;;;;;;;0.90;0.20;;;;;;;24.81;59.12;101943.63;5034567;28;20044;-68
2022/04/23 07:21:40;;;;;;;2.42;0.30;;;;;;;24.85;59.86;101939.44;5034482;28;20100;-68
2022/04/23 07:24:07;;;;;;;1.15;0.35;;;;;;;24.87;60.02;101937.41;5034874;28;20036;-68
2022/04/23 07:26:37;;;;;;;1.73;0.40;;;;;;;24.87;59.50;101926.41;5034309;28;20071;-68
2022/04/23 07:29:06;;;;;;;0.85;0.32;;;;;;;24.88;59.08;101922.59;5034760;28;20029;-68
2022/04/23 07:31:32;;;;;;;1.40;0.57;;;;;;;24.89;59.02;101930.66;5034461;28;20025;-68
2022/04/23 07:39:25;;;;;;;0.75;0.25;;;;;;;24.90;59.61;101926.88;5034279;28;20032;-68
2022/04/23 07:41:51;;;;;;;0.88;0.20;;;;;;;24.92;58.68;101923.06;5034349;28;20025;-68
2022/04/23 07:44:16;;;;;;;1.55;0.20;;;;;;;24.93;59.64;101924.78;5034232;28;20028;-68
2022/04/23 07:46:41;;;;;;;0.70;0.10;;;;;;;24.94;58.96;101926.47;5034246;28;20025;-68
2022/04/23 07:49:06;;;;;;;1.55;0.20;;;;;;;24.95;59.25;101926.28;5034205;28;20061;-68
2022/04/23 07:51:32;;;;;;;1.15;0.32;;;;;;;24.95;59.20;101925.44;5033995;28;20033;-68
2022/04/23 07:53:57;;;;;;;0.38;0.30;;;;;;;24.94;59.94;101915.47;5033877;28;20045;-68
2022/04/23 07:56:22;;;;;;;0.32;0.30;;;;;;;24.92;59.42;101917.56;5033774;28;20029;-68
2022/04/23 07:58:48;;;;;;;1.35;0.40;;;;;;;24.96;59.39;101927.13;5033943;28;20457;-68
2022/04/23 08:01:13;;;;;;;0.52;0.20;;;;;;;24.96;59.46;101921.63;5033787;28;20029;-68
2022/04/23 08:03:39;;;;;;;0.60;0.22;;;;;;;24.97;59.27;101937.09;5033813;28;20740;-68
2022/04/23 08:06:04;;;;;;;1.15;0.47;;;;;;;24.93;58.83;101920.13;5033904;28;20025;-68
2022/04/23 08:08:29;;;;;;;1.75;0.70;;;;;;;24.90;59.58;101929.63;5033400;28;20515;-69
2022/04/23 08:10:55;;;;;;;0.45;0.15;;;;;;;24.96;59.36;101924.38;5040867;28;20037;-68
2022/04/23 08:13:20;;;;;;;0.22;0.22;;;;;;;24.95;59.49;101922.69;5032191;28;20014;-68
2022/04/23 08:15:46;;;;;;;0.77;0.17;;;;;;;24.95;59.32;101922.69;5032424;28;20388;-68
2022/04/23 08:18:12;;;;;;;1.65;0.20;;;;;;;24.93;59.17;101930.28;5033379;28;20028;-68
2022/04/23 08:20:41;;;;;;;0.40;0.10;;;;;;;24.99;59.77;101924.00;5033273;28;20029;-68
2022/04/23 08:23:07;;;;;;;0.98;0.20;;;;;;;24.95;58.70;101928.19;5033406;28;20021;-68
2022/04/23 08:25:32;;;;;;;0.45;0.20;;;;;;;24.96;59.08;101925.25;5033406;28;20041;-69
2022/04/23 08:30:41;;;;;;;0.60;0.40;;;;;;;24.97;59.04;101917.84;5033248;28;20040;-67
2022/04/23 08:33:07;;;;;;;1.08;0.30;;;;;;;25.01;59.40;101916.44;5033594;28;20037;-67
2022/04/23 08:35:34;;;;;;;1.25;0.30;;;;;;;24.98;59.17;101911.28;5033400;28;20465;-68
2022/04/23 08:38:00;;;;;;;1.25;0.25;;;;;;;24.99;58.78;101913.00;5033431;28;20051;-68
2022/04/23 08:40:29;;;;;;;1.13;0.22;;;;;;;24.99;58.77;101915.75;5032872;28;20033;-68
2022/04/23 08:42:55;;;;;;;0.90;0.20;;;;;;;25.02;59.16;101915.41;5033041;28;20036;-69
2022/04/23 08:45:20;;;;;;;0.32;0.10;;;;;;;24.98;58.72;101909.41;5033063;28;20029;-68
2022/04/23 08:47:45;;;;;;;0.57;0.22;;;;;;;24.99;59.42;101915.75;5033179;28;20445;-68
2022/04/23 08:50:12;;;;;;;0.20;0.17;;;;;;;25.01;59.54;101921.94;5033287;28;20124;-66
2022/04/23 08:52:42;;;;;;;2.75;0.30;;;;;;;25.01;59.16;101924.69;5033045;28;20046;-67
2022/04/23 08:55:08;;;;;;;0.45;0.15;;;;;;;25.01;59.03;101921.94;5031774;28;20060;-68
2022/04/23 08:57:35;;;;;;;0.13;0.10;;;;;;;25.03;59.32;101917.13;5032700;28;20028;-68
2022/04/23 09:00:02;;;;;;;1.20;0.40;;;;;;;25.06;58.87;101925.00;5031769;28;20116;-68
2022/04/23 09:02:27;;;;;;;0.68;0.30;;;;;;;25.04;58.95;101927.09;5032706;28;20115;-68
2022/04/23 09:04:54;;;;;;;0.35;0.15;;;;;;;25.01;58.71;101917.28;5031751;28;20453;-69
2022/04/23 09:07:20;;;;;;;1.15;0.28;;;;;;;25.02;59.70;101913.50;5032655;28;20037;-68
2022/04/23 09:09:50;;;;;;;0.60;0.30;;;;;;;24.99;58.49;101918.50;5033104;28;20087;-67
2022/04/23 09:12:17;;;;;;;0.98;0.40;;;;;;;25.00;58.90;101926.59;5032688;28;20392;-68
2022/04/23 09:14:45;;;;;;;2.05;0.47;;;;;;;24.98;59.74;101920.41;5032453;28;20036;-68
2022/04/23 09:25:35;;;;;;;0.60;0.25;;;;;;;25.06;58.61;101922.25;5032599;28;20060;-68
2022/04/23 09:28:16;;;;;;;3.17;0.60;;;;;;;25.08;58.49;101923.75;5032639;28;20060;-67
2022/04/23 09:30:42;;;;;;;1.05;0.40;;;;;;;25.05;58.68;101928.81;5032370;28;20029;-68
2022/04/23 09:33:08;;;;;;;0.10;0.10;;;;;;;25.05;58.96;101928.81;5032327;28;20200;-67
2022/04/23 09:35:33;;;;;;;1.00;0.22;;;;;;;25.05;59.17;101924.16;5032144;28;20495;-68
2022/04/23 09:38:14;;;;;;;1.20;0.30;;;;;;;25.08;58.90;101929.28;5032448;28;20068;-67
2022/04/23 09:40:40;;;;;;;0.68;0.10;;;;;;;25.09;59.19;101935.63;5034431;28;20029;-68
2022/04/23 09:43:09;;;;;;;0.10;0.10;;;;;;;25.09;59.52;101924.63;5037885;28;20448;-66
2022/04/23 09:45:39;;;;;;;0.90;0.30;;;;;;;25.06;59.17;101936.00;5032451;28;20036;-68
2022/04/23 09:48:10;;;;;;;0.45;0.20;;;;;;;25.06;58.96;101930.50;5032201;28;20053;-69
2022/04/23 09:50:36;;;;;;;0.50;0.20;;;;;;;25.03;59.35;101941.91;5030642;28;20060;-68
2022/04/23 09:53:09;;;;;;;0.55;0.20;;;;;;;25.05;59.21;101945.31;5032090;28;20393;-68
2022/04/23 09:55:35;;;;;;;1.02;0.20;;;;;;;25.04;59.30;101951.84;5031915;28;20040;-68
2022/04/23 09:58:04;;;;;;;1.15;0.20;;;;;;;25.03;59.06;101941.91;5032175;28;20021;-69
2022/04/23 10:00:30;;;;;;;0.30;0.10;;;;;;;25.05;58.96;101950.81;5031649;28;20028;-68
2022/04/23 10:02:59;;;;;;;1.75;0.38;;;;;;;25.04;59.13;101954.59;5032227;28;20104;-69
2022/04/23 10:05:26;;;;;;;1.60;0.25;;;;;;;25.04;58.57;101954.59;5031852;28;20496;-68
2022/04/23 10:07:54;;;;;;;0.52;0.25;;;;;;;25.05;58.89;101956.31;5032091;28;20380;-69
2022/04/23 10:10:25;;;;;;;0.95;0.20;;;;;;;25.04;58.74;101955.47;5032162;28;20021;-69
2022/04/23 10:12:54;;;;;;;0.55;0.10;;;;;;;25.06;58.60;101949.75;5031982;28;20033;-68
2022/04/23 10:15:20;;;;;;;1.35;0.38;;;;;;;25.07;58.59;101954.22;5032044;28;20079;-69
2022/04/23 10:17:48;;;;;;;2.25;0.38;;;;;;;25.02;58.72;101946.50;5032291;28;20017;-69
2022/04/23 10:20:13;;;;;;;1.33;0.65;;;;;;;25.06;58.90;101952.50;5032291;28;20021;-69
2022/04/23 10:22:54;;;;;;;1.27;0.40;;;;;;;25.07;59.06;101951.47;5030268;28;20028;-68
2022/04/23 10:25:49;;;;;;;1.08;0.22;;;;;;;25.05;59.68;101962.66;5031765;28;20350;-68
2022/04/23 10:28:17;;;;;;;0.00;0.00;;;;;;;25.07;58.74;101954.22;5031891;28;20051;-69
2022/04/23 10:30:45;;;;;;;1.60;0.32;;;;;;;25.05;58.59;101951.66;5031703;28;20036;-69
2022/04/23 10:33:27;;;;;;;0.93;0.30;;;;;;;25.09;58.96;101968.66;5034118;28;20040;-69
2022/04/23 10:36:06;;;;;;;1.30;0.32;;;;;;;25.09;59.09;101952.13;5038136;28;20036;-69
2022/04/23 10:38:31;;;;;;;0.63;0.30;;;;;;;25.07;59.36;101959.72;5047698;28;20047;-69
2022/04/23 10:40:57;;;;;;;0.20;0.10;;;;;;;25.09;59.31;101963.13;5035502;28;20711;-69
2022/04/23 10:43:22;;;;;;;0.68;0.28;;;;;;;25.12;59.77;101968.25;5035227;28;20029;-69
2022/04/23 10:45:48;;;;;;;1.17;0.20;;;;;;;25.12;59.55;101968.25;5035385;28;20030;-69
2022/04/23 10:48:43;;;;;;;0.30;0.20;;;;;;;25.09;59.12;101960.38;5035260;28;20083;-69
2022/04/23 10:51:18;;;;;;;2.22;0.40;;;;;;;25.09;59.23;101960.38;5035153;28;20029;-69
2022/04/23 10:53:43;;;;;;;2.55;0.22;;;;;;;25.13;59.33;101962.56;5035030;28;20041;-69
2022/04/23 10:56:17;;;;;;;2.33;0.30;;;;;;;25.12;58.92;101973.75;5034215;28;20115;-69
2022/04/23 10:58:43;;;;;;;0.38;0.20;;;;;;;25.08;59.11;101965.03;5034787;28;20764;-69
2022/04/23 11:01:25;;;;;;;0.80;0.20;;;;;;;25.06;58.80;101969.88;5035188;28;20036;-69
2022/04/23 11:03:56;;;;;;;0.63;0.30;;;;;;;25.12;58.90;101968.25;5034991;28;20040;-68
2022/04/23 11:12:19;;;;;;;1.00;0.40;;;;;;;25.11;59.14;101972.06;5034994;28;19932;-69
2022/04/23 11:14:47;;;;;;;1.48;0.40;;;;;;;25.12;58.79;101968.25;5034795;28;20101;-69
2022/04/23 11:17:13;;;;;;;0.15;0.10;;;;;;;25.12;59.52;101968.25;5035444;28;20018;-67
2022/04/23 11:19:40;;;;;;;0.65;0.20;;;;;;;25.13;59.35;101969.97;5039993;28;20048;-69
2022/04/23 11:22:05;;;;;;;0.45;0.20;;;;;;;25.14;60.03;101968.91;5035001;28;20021;-69
2022/04/23 11:24:30;;;;;;;0.63;0.10;;;;;;;25.14;59.28;101949.66;5034400;28;20037;-69
2022/04/23 11:26:56;;;;;;;0.77;0.38;;;;;;;25.15;58.86;101962.38;5034706;28;20022;-69
2022/04/23 11:29:21;;;;;;;0.80;0.30;;;;;;;25.15;59.72;101957.72;5034387;28;20408;-69
2022/04/23 11:31:59;;;;;;;0.98;0.20;;;;;;;25.15;59.26;101962.38;5034701;28;20113;-69
2022/04/23 11:34:27;;;;;;;0.70;0.28;;;;;;;25.13;59.55;101956.22;5034538;28;20049;-69
2022/04/23 11:36:53;;;;;;;0.60;0.30;;;;;;;25.14;59.46;101955.16;5052911;28;20025;-70
2022/04/23 11:39:26;;;;;;;0.65;0.20;;;;;;;25.17;59.11;101957.53;5038133;28;20040;-69
2022/04/23 11:41:53;;;;;;;1.15;0.20;;;;;;;25.19;59.13;101958.19;5034402;28;20032;-69
2022/04/23 11:44:45;;;;;;;0.60;0.20;;;;;;;25.17;58.82;101954.78;5033406;28;20416;-69
2022/04/23 11:47:07;;;;;;;0.63;0.30;;;;;;;25.19;59.06;101956.31;5034136;28;20025;-69